createdAt,value
2023-05-05T04:05:31.818Z,11.32
2023-05-05T04:09:46.403Z,11.25
2023-05-05T04:13:58.033Z,11.25
2023-05-05T04:18:11.523Z,11.39
2023-05-05T04:22:23.404Z,11.38
2023-05-05T04:26:35.798Z,11.39
2023-05-05T04:30:47.738Z,11.48
2023-05-05T04:34:59.317Z,11.55
2023-05-05T04:39:11.060Z,11.65
2023-05-05T04:43:22.751Z,11.73
2023-05-05T04:47:40.815Z,11.87
2023-05-05T04:51:53.030Z,11.94
2023-05-05T04:56:04.944Z,12.14
2023-05-05T05:00:17.628Z,12.24
2023-05-05T05:04:29.208Z,12.49
2023-05-05T05:08:40.895Z,12.67
2023-05-05T05:12:52.484Z,12.81
2023-05-05T05:17:04.220Z,13.02
2023-05-05T05:21:16.197Z,13.07
2023-05-05T05:25:28.932Z,13.19
2023-05-05T05:29:40.562Z,13.33
2023-05-05T05:33:52.140Z,13.50
2023-05-05T05:38:03.971Z,13.72
2023-05-05T05:42:15.585Z,14.07
2023-05-05T05:46:27.211Z,14.53
2023-05-05T05:50:38.905Z,14.81
2023-05-05T05:54:50.671Z,15.19
2023-05-05T05:59:04.513Z,15.51
2023-05-05T06:03:16.634Z,15.92
2023-05-05T06:07:28.367Z,16.09
2023-05-05T06:11:40.255Z,15.91
2023-05-05T06:15:52.060Z,15.80
2023-05-05T06:20:05.277Z,15.97
2023-05-05T06:24:16.931Z,16.47
2023-05-05T06:28:28.572Z,16.57
2023-05-05T06:32:40.108Z,16.98
2023-05-05T06:36:51.640Z,17.13
2023-05-05T06:41:03.305Z,17.05
2023-05-05T06:45:14.864Z,17.36
2023-05-05T06:49:26.469Z,18.39
2023-05-05T06:53:37.983Z,19.21
2023-05-05T06:57:49.476Z,20.00
2023-05-05T07:02:00.996Z,20.07
2023-05-05T07:06:12.521Z,19.63
2023-05-05T07:10:24.962Z,19.22
2023-05-05T07:14:36.450Z,19.73
2023-05-05T07:18:47.956Z,19.98
2023-05-05T07:22:59.591Z,20.02
2023-05-05T07:27:11.517Z,20.29
2023-05-05T07:31:23.422Z,20.60
2023-05-05T07:35:35.081Z,21.06
2023-05-05T07:39:49.541Z,21.27
2023-05-05T07:44:01.377Z,21.35
2023-05-05T07:48:12.918Z,21.20
2023-05-05T07:52:37.354Z,20.95
2023-05-05T07:56:57.205Z,21.09
2023-05-05T08:01:11.009Z,21.28
2023-05-05T08:05:22.593Z,21.50
2023-05-05T08:09:37.872Z,21.49
2023-05-05T08:13:49.385Z,21.37
2023-05-05T08:18:01.116Z,21.43
2023-05-05T08:22:12.843Z,21.32
2023-05-05T08:26:24.605Z,20.90
2023-05-05T08:30:36.198Z,21.20
2023-05-05T08:34:47.694Z,21.24
2023-05-05T08:39:00.352Z,21.24
2023-05-05T08:43:12.060Z,21.32
2023-05-05T08:47:23.571Z,21.44
2023-05-05T08:51:41.865Z,21.66
2023-05-05T08:55:56.212Z,21.52
2023-05-05T09:00:10.781Z,21.48
2023-05-05T09:04:22.505Z,21.35
2023-05-05T09:08:34.161Z,21.37
2023-05-05T09:12:45.764Z,21.56
2023-05-05T09:16:57.309Z,21.67
2023-05-05T09:21:22.575Z,21.83
2023-05-05T09:25:34.198Z,22.00
2023-05-05T09:29:49.771Z,22.13
2023-05-05T09:34:01.708Z,22.18
2023-05-05T09:38:13.244Z,22.10
2023-05-05T09:42:24.755Z,22.01
2023-05-05T09:46:36.561Z,22.22
2023-05-05T09:50:48.140Z,22.29
2023-05-05T09:54:59.693Z,22.32
2023-05-05T09:59:11.930Z,22.31
2023-05-05T10:03:24.643Z,22.31
2023-05-05T10:07:37.230Z,22.22
2023-05-05T10:11:49.384Z,22.23
2023-05-05T10:16:03.155Z,22.37
2023-05-05T10:20:15.771Z,22.58
2023-05-05T10:24:42.755Z,22.64
2023-05-05T10:29:03.988Z,22.49
2023-05-05T10:33:31.510Z,22.52
2023-05-05T10:37:44.645Z,22.73
2023-05-05T10:42:00.271Z,22.72
2023-05-05T10:46:11.859Z,22.65
2023-05-05T10:50:35.640Z,22.55
2023-05-05T10:55:01.995Z,22.68
2023-05-05T10:59:38.822Z,22.97
2023-05-05T11:03:50.598Z,23.20
2023-05-05T11:08:25.577Z,22.90
2023-05-05T11:12:52.300Z,22.81
2023-05-05T11:17:03.946Z,22.92
2023-05-05T11:21:17.433Z,22.88
2023-05-05T11:25:35.337Z,22.91
2023-05-05T11:30:09.566Z,22.65
2023-05-05T11:34:28.046Z,22.50
2023-05-05T11:38:54.650Z,22.43
2023-05-05T11:43:07.315Z,22.23
2023-05-05T11:47:18.728Z,22.25
2023-05-05T11:51:31.240Z,22.28
2023-05-05T11:55:42.747Z,22.28
2023-05-05T12:00:05.811Z,22.34
2023-05-05T12:04:18.089Z,22.45
2023-05-05T12:08:36.018Z,22.60
2023-05-05T12:12:48.518Z,22.81
2023-05-05T12:17:07.386Z,22.86
2023-05-05T12:21:19.773Z,23.04
2023-05-05T12:25:35.774Z,23.12
2023-05-05T12:29:47.325Z,23.09
2023-05-05T12:33:58.866Z,22.88
2023-05-05T12:38:10.640Z,22.65
2023-05-05T12:42:23.017Z,22.50
2023-05-05T12:46:48.495Z,22.37
2023-05-05T12:51:20.523Z,22.47
2023-05-05T12:55:38.095Z,22.71
2023-05-05T12:59:51.436Z,22.55
2023-05-05T13:04:11.542Z,22.43
2023-05-05T13:08:23.726Z,22.14
2023-05-05T13:12:35.253Z,21.81
2023-05-05T13:16:46.949Z,21.59
2023-05-05T13:20:58.489Z,21.48
2023-05-05T13:25:10.606Z,21.37
2023-05-05T13:29:26.139Z,21.08
2023-05-05T13:33:40.044Z,20.98
2023-05-05T13:37:51.858Z,20.87
2023-05-05T13:42:03.631Z,20.74
2023-05-05T13:46:19.976Z,20.59
2023-05-05T13:50:33.878Z,20.27
2023-05-05T13:54:45.977Z,20.01
2023-05-05T13:58:57.769Z,19.90
2023-05-05T14:03:09.306Z,19.73
2023-05-05T14:07:21.620Z,19.51
2023-05-05T14:11:33.277Z,19.21
2023-05-05T14:15:44.872Z,19.00
2023-05-05T14:19:56.452Z,18.98
2023-05-05T14:24:08.110Z,18.86
2023-05-05T14:28:19.724Z,18.74
2023-05-05T14:32:31.255Z,18.63
2023-05-05T14:36:42.886Z,18.31
2023-05-05T14:40:54.404Z,18.06
2023-05-05T14:45:06.927Z,17.91
2023-05-05T14:49:18.637Z,17.80
2023-05-05T14:53:30.490Z,17.76
2023-05-05T14:57:41.979Z,17.83
2023-05-05T15:01:53.543Z,17.72
2023-05-05T15:06:07.571Z,17.71
2023-05-05T15:10:21.718Z,17.81
2023-05-05T15:14:33.548Z,17.96
2023-05-05T15:18:45.062Z,18.10
2023-05-05T15:22:57.056Z,18.26
2023-05-05T15:27:08.605Z,18.43
2023-05-05T15:31:20.244Z,18.38
2023-05-05T15:35:31.765Z,18.34
2023-05-05T15:39:43.256Z,18.20
2023-05-05T15:43:54.994Z,18.14
2023-05-05T15:48:07.393Z,17.89
2023-05-05T15:52:18.970Z,17.65
2023-05-05T15:56:30.472Z,17.61
2023-05-05T16:00:42.010Z,17.65
2023-05-05T16:04:53.590Z,17.44
2023-05-05T16:09:05.094Z,17.81
2023-05-05T16:13:16.787Z,18.08
2023-05-05T16:17:28.423Z,18.40
2023-05-05T16:21:39.965Z,18.40
2023-05-05T16:25:51.484Z,18.34
2023-05-05T16:30:03.143Z,18.54
2023-05-05T16:34:14.882Z,18.47
2023-05-05T16:38:26.473Z,18.61
2023-05-05T16:42:38.060Z,18.64
2023-05-05T16:46:49.564Z,18.59
2023-05-05T16:51:01.159Z,18.56
2023-05-05T16:55:12.727Z,18.57
2023-05-05T16:59:24.305Z,18.57
2023-05-05T17:03:35.932Z,18.56
2023-05-05T17:07:50.348Z,18.45
2023-05-05T17:12:04.024Z,18.44
2023-05-05T17:16:15.683Z,18.32
2023-05-05T17:20:27.327Z,18.13
2023-05-05T17:24:38.844Z,18.10
2023-05-05T17:28:50.365Z,18.17
2023-05-05T17:33:01.942Z,17.96
2023-05-05T17:37:13.670Z,17.86
2023-05-05T17:41:25.647Z,17.79
2023-05-05T17:45:37.371Z,17.75
2023-05-05T17:49:49.271Z,17.55
2023-05-05T17:54:01.028Z,17.40
2023-05-05T17:58:12.884Z,17.30
2023-05-05T18:02:24.897Z,17.27
2023-05-05T18:06:36.461Z,17.17
2023-05-05T18:10:48.193Z,17.31
2023-05-05T18:15:00.456Z,17.15
2023-05-05T18:19:12.000Z,17.13
2023-05-05T18:23:23.557Z,16.99
2023-05-05T18:27:35.972Z,16.98
2023-05-05T18:31:52.033Z,16.98
2023-05-05T18:36:03.923Z,16.95
2023-05-05T18:40:15.568Z,16.85
2023-05-05T18:44:27.352Z,16.72
2023-05-05T18:48:38.884Z,16.59
2023-05-05T18:52:50.382Z,16.46
2023-05-05T18:57:03.375Z,16.32
2023-05-05T19:01:15.028Z,16.20
2023-05-05T19:05:27.215Z,16.05
2023-05-05T19:09:38.737Z,16.04
2023-05-05T19:13:50.230Z,15.86
2023-05-05T19:18:01.938Z,15.84
2023-05-05T19:22:13.435Z,15.77
2023-05-05T19:26:24.993Z,15.62
2023-05-05T19:30:36.859Z,15.51
2023-05-05T19:34:48.471Z,15.49
2023-05-05T19:39:01.802Z,15.33
2023-05-05T19:43:13.354Z,15.22
2023-05-05T19:47:24.904Z,15.15
2023-05-05T19:51:36.408Z,15.08
2023-05-05T19:55:48.070Z,14.95
2023-05-05T19:59:59.574Z,14.86
2023-05-05T20:04:11.092Z,14.77
2023-05-05T20:08:22.614Z,14.65
2023-05-05T20:12:34.115Z,14.57
2023-05-05T20:16:45.651Z,14.52
2023-05-05T20:20:58.840Z,14.38
2023-05-05T20:25:11.332Z,14.30
2023-05-05T20:29:22.833Z,14.21
2023-05-05T20:33:34.547Z,14.15
2023-05-05T20:37:46.250Z,14.08
2023-05-05T20:41:57.750Z,13.97
2023-05-05T20:46:13.115Z,13.87
2023-05-05T20:50:24.979Z,13.82
2023-05-05T20:54:36.795Z,13.85
2023-05-05T20:58:48.320Z,13.73
2023-05-05T21:02:59.959Z,13.66
2023-05-05T21:07:11.523Z,13.56
2023-05-05T21:11:23.034Z,13.49
2023-05-05T21:15:39.192Z,13.52
2023-05-05T21:19:51.628Z,13.35
2023-05-05T21:24:04.360Z,13.23
2023-05-05T21:28:17.121Z,13.20
